^^
Station Historical Data
Daily Summary for December 6, 2017 Units:  English    Metric   Both
« Previous Day
Next Day »
Daily Weekly Monthly Yearly Custom
  High: Low: Average:
Temperature: 49.6 °F 34.9 °F 39.1 °F
Dew Point: 49.5 °F 30.9 °F 36.5 °F
Humidity: 99% 76% 90%
Wind Speed: 2.9mph 0.0mph 0mph
Wind Gust: 3.0mph - -
Wind- - East
Pressure: 30.30 in 30.02 in -
Precipitation: 0.00 in    
Historical Graphs
 
 
Tabular Data for December 6, 2017
Time Temperature Dew Point Pressure Wind Wind Speed Wind Gust Humidity Rainfall Rate (Hourly)
00:03 49.6 °F 49.5 °F 30.04 in Calm   1.0 mph 99% 0.00 in
00:08 49.6 °F 49.5 °F 30.05 in Calm     99% 0.00 in
00:13 49.6 °F 49.5 °F 30.05 in Calm   1.0 mph 99% 0.00 in
00:18 49.6 °F 49.5 °F 30.05 in Calm     99% 0.00 in
00:23 49.6 °F 49.5 °F 30.04 in Calm     99% 0.00 in
00:28 49.6 °F 49.5 °F 30.04 in Calm     99% 0.00 in
00:34 49.5 °F 49.3 °F 30.04 in Calm     99% 0.00 in
00:39 49.5 °F 49.3 °F 30.03 in Calm     99% 0.00 in
00:44 49.5 °F 49.3 °F 30.03 in Calm     99% 0.00 in
00:49 49.5 °F 49.3 °F 30.03 in Calm     99% 0.00 in
00:53 49.5 °F 49.3 °F 30.03 in Calm     99% 0.00 in
00:58 49.5 °F 49.3 °F 30.03 in Calm     99% 0.00 in
01:03 49.5 °F 49.3 °F 30.03 in Calm     99% 0.00 in
01:08 49.5 °F 49.3 °F 30.03 in Calm     99% 0.00 in
01:13 49.5 °F 49.3 °F 30.03 in Calm     99% 0.00 in
01:18 49.5 °F 49.3 °F 30.02 in Calm     99% 0.00 in
01:23 49.5 °F 49.3 °F 30.03 in Calm     99% 0.00 in
01:28 49.5 °F 49.3 °F 30.03 in Calm     99% 0.00 in
01:33 49.3 °F 49.1 °F 30.03 in Calm   1.0 mph 99% 0.00 in
01:38 49.1 °F 48.9 °F 30.03 in NE 0.9 mph 1.0 mph 99% 0.00 in
01:43 48.7 °F 48.6 °F 30.03 in NE 2.0 mph 3.0 mph 99% 0.00 in
01:48 48.4 °F 48.2 °F 30.03 in Calm   3.0 mph 99% 0.00 in
01:53 48.0 °F 47.5 °F 30.03 in Calm   1.0 mph 98% 0.00 in
01:58 47.8 °F 47.3 °F 30.03 in Calm   1.0 mph 98% 0.00 in
02:03 47.5 °F 46.9 °F 30.03 in NE 2.0 mph 3.0 mph 98% 0.00 in
02:08 47.1 °F 46.6 °F 30.03 in ENE 2.9 mph 3.0 mph 98% 0.00 in
02:13 46.8 °F 46.2 °F 30.03 in Calm   1.0 mph 98% 0.00 in
02:18 46.6 °F 45.9 °F 30.03 in Calm     97% 0.00 in
02:23 46.6 °F 45.9 °F 30.03 in Calm     97% 0.00 in
02:28 46.4 °F 45.7 °F 30.03 in Calm     97% 0.00 in
02:33 46.2 °F 45.5 °F 30.04 in Calm     97% 0.00 in
02:39 46.0 °F 45.3 °F 30.04 in Calm     97% 0.00 in
02:44 45.9 °F 45.1 °F 30.04 in Calm     97% 0.00 in
02:49 45.9 °F 45.1 °F 30.05 in Calm   1.0 mph 97% 0.00 in
02:54 45.7 °F 45.0 °F 30.05 in Calm     97% 0.00 in
02:59 45.7 °F 45.0 °F 30.05 in Calm     97% 0.00 in
03:04 45.5 °F 44.8 °F 30.05 in Calm     97% 0.00 in
03:09 45.3 °F 44.2 °F 30.05 in Calm     96% 0.00 in
03:14 45.1 °F 44.1 °F 30.05 in Calm     96% 0.00 in
03:19 45.1 °F 44.1 °F 30.06 in Calm     96% 0.00 in
03:24 45.0 °F 43.9 °F 30.06 in Calm     96% 0.00 in
03:29 44.6 °F 43.3 °F 30.06 in Calm     95% 0.00 in
03:34 44.2 °F 43.0 °F 30.06 in Calm     95% 0.00 in
03:39 43.9 °F 42.6 °F 30.05 in Calm     95% 0.00 in
03:44 43.5 °F 42.3 °F 30.06 in Calm     95% 0.00 in
03:49 43.2 °F 41.5 °F 30.05 in Calm   2.0 mph 94% 0.00 in
03:54 42.8 °F 41.2 °F 30.05 in Calm     94% 0.00 in
03:59 42.4 °F 41.2 °F 30.05 in Calm     95% 0.00 in
04:04 42.3 °F 40.6 °F 30.06 in Calm   1.0 mph 94% 0.00 in
04:09 41.9 °F 40.3 °F 30.06 in Calm     94% 0.00 in
04:14 41.7 °F 40.1 °F 30.06 in Calm     94% 0.00 in
04:19 41.4 °F 40.1 °F 30.06 in Calm     95% 0.00 in
04:24 41.2 °F 39.9 °F 30.06 in Calm     95% 0.00 in
04:29 40.8 °F 39.6 °F 30.07 in Calm     95% 0.00 in
04:34 40.6 °F 39.4 °F 30.07 in Calm     95% 0.00 in
04:39 40.3 °F 39.0 °F 30.06 in Calm     95% 0.00 in
04:44 39.9 °F 38.7 °F 30.06 in Calm     95% 0.00 in
04:49 39.7 °F 38.7 °F 30.07 in Calm     96% 0.00 in
04:54 39.6 °F 38.5 °F 30.07 in Calm     96% 0.00 in
04:59 39.4 °F 38.3 °F 30.06 in Calm     96% 0.00 in
05:04 39.2 °F 38.1 °F 30.06 in Calm     96% 0.00 in
05:10 39.0 °F 37.9 °F 30.06 in Calm     96% 0.00 in
05:14 38.8 °F 37.8 °F 30.06 in Calm     96% 0.00 in
05:20 38.7 °F 37.6 °F 30.06 in Calm     96% 0.00 in
05:25 38.7 °F 37.9 °F 30.06 in Calm     97% 0.00 in
05:30 38.5 °F 37.8 °F 30.06 in Calm     97% 0.00 in
05:35 38.5 °F 37.8 °F 30.06 in Calm     97% 0.00 in
05:40 38.3 °F 37.6 °F 30.06 in Calm     97% 0.00 in
05:45 38.1 °F 37.4 °F 30.06 in Calm     97% 0.00 in
05:50 37.9 °F 37.2 °F 30.06 in Calm     97% 0.00 in
05:55 37.8 °F 37.0 °F 30.07 in Calm     97% 0.00 in
05:59 37.8 °F 36.7 °F 30.07 in Calm     96% 0.00 in
06:04 37.8 °F 37.0 °F 30.08 in Calm     97% 0.00 in
06:09 37.6 °F 36.9 °F 30.08 in Calm     97% 0.00 in
06:14 37.6 °F 36.9 °F 30.08 in Calm     97% 0.00 in
06:19 37.6 °F 36.9 °F 30.07 in Calm     97% 0.00 in
06:24 37.4 °F 36.7 °F 30.08 in Calm     97% 0.00 in
06:29 37.2 °F 36.1 °F 30.07 in Calm   1.0 mph 96% 0.00 in
06:34 37.2 °F 36.1 °F 30.07 in Calm     96% 0.00 in
06:39 37.2 °F 36.1 °F 30.07 in Calm     96% 0.00 in
06:44 37.0 °F 36.0 °F 30.08 in Calm     96% 0.00 in
06:49 37.0 °F 35.8 °F 30.09 in Calm     95% 0.00 in
06:54 37.0 °F 36.0 °F 30.09 in Calm     96% 0.00 in
06:59 36.9 °F 35.6 °F 30.09 in Calm     95% 0.00 in
07:04 36.9 °F 35.6 °F 30.08 in Calm     95% 0.00 in
07:09 36.9 °F 35.6 °F 30.09 in Calm     95% 0.00 in
07:14 36.9 °F 35.6 °F 30.09 in Calm     95% 0.00 in
07:19 36.7 °F 35.4 °F 30.09 in Calm     95% 0.00 in
07:24 36.9 °F 35.8 °F 30.09 in Calm     96% 0.00 in
07:29 36.9 °F 35.8 °F 30.10 in Calm     96% 0.00 in
07:34 36.9 °F 35.8 °F 30.09 in Calm     96% 0.00 in
07:39 36.9 °F 35.8 °F 30.10 in Calm     96% 0.00 in
07:49 36.7 °F 35.6 °F 30.10 in Calm     96% 0.00 in
07:54 36.7 °F 35.6 °F 30.10 in Calm     96% 0.00 in
07:59 36.7 °F 35.6 °F 30.10 in Calm     96% 0.00 in
08:04 36.7 °F 35.6 °F 30.10 in Calm     96% 0.00 in
08:09 36.9 °F 35.8 °F 30.10 in Calm     96% 0.00 in
08:14 36.7 °F 35.6 °F 30.10 in Calm     96% 0.00 in
08:19 36.7 °F 35.6 °F 30.10 in Calm     96% 0.00 in
08:24 36.5 °F 35.4 °F 30.10 in Calm     96% 0.00 in
08:29 36.3 °F 35.2 °F 30.10 in Calm     96% 0.00 in
08:34 36.1 °F 35.1 °F 30.10 in Calm     96% 0.00 in
08:39 36.1 °F 35.1 °F 30.11 in Calm     96% 0.00 in
08:44 36.3 °F 35.2 °F 30.11 in Calm     96% 0.00 in
08:49 36.7 °F 35.6 °F 30.10 in Calm     96% 0.00 in
08:54 36.9 °F 35.8 °F 30.10 in Calm     96% 0.00 in
08:59 36.9 °F 35.8 °F 30.11 in Calm     96% 0.00 in
09:04 37.0 °F 35.8 °F 30.11 in Calm     95% 0.00 in
09:10 37.2 °F 36.0 °F 30.11 in East 0.9 mph 1.0 mph 95% 0.00 in
09:15 37.2 °F 35.6 °F 30.11 in Calm     94% 0.00 in
09:20 37.6 °F 36.0 °F 30.12 in Calm     94% 0.00 in
09:25 37.6 °F 36.0 °F 30.12 in Calm     94% 0.00 in
09:30 37.8 °F 36.1 °F 30.12 in Calm     94% 0.00 in
09:35 37.9 °F 36.3 °F 30.12 in Calm     94% 0.00 in
09:40 37.9 °F 36.1 °F 30.13 in Calm     93% 0.00 in
09:45 38.1 °F 36.3 °F 30.13 in Calm     93% 0.00 in
09:50 38.1 °F 36.0 °F 30.14 in Calm     92% 0.00 in
09:55 38.1 °F 36.0 °F 30.14 in Calm     92% 0.00 in
10:00 38.1 °F 35.8 °F 30.15 in Calm     91% 0.00 in
10:05 38.1 °F 36.0 °F 30.15 in Calm   1.0 mph 92% 0.00 in
10:10 38.1 °F 36.0 °F 30.15 in Calm     92% 0.00 in
10:15 38.1 °F 36.0 °F 30.15 in Calm   1.0 mph 92% 0.00 in
10:20 38.1 °F 36.0 °F 30.15 in Calm   1.0 mph 92% 0.00 in
10:25 38.1 °F 36.0 °F 30.15 in Calm     92% 0.00 in
10:30 37.9 °F 35.8 °F 30.15 in Calm     92% 0.00 in
10:35 37.9 °F 35.6 °F 30.15 in Calm     91% 0.00 in
10:40 37.9 °F 35.8 °F 30.15 in Calm     92% 0.00 in
10:45 38.1 °F 36.0 °F 30.15 in Calm     92% 0.00 in
10:50 38.1 °F 36.0 °F 30.15 in Calm     92% 0.00 in
10:55 38.1 °F 36.0 °F 30.16 in Calm     92% 0.00 in
11:00 38.5 °F 36.3 °F 30.16 in Calm     92% 0.00 in
11:06 38.5 °F 36.3 °F 30.16 in Calm     92% 0.00 in
11:13 38.5 °F 36.1 °F 30.16 in Calm     91% 0.00 in
11:18 38.7 °F 36.5 °F 30.16 in Calm     92% 0.00 in
11:23 38.8 °F 36.5 °F 30.16 in Calm     91% 0.00 in
11:28 38.8 °F 36.5 °F 30.16 in Calm     91% 0.00 in
11:33 38.8 °F 36.7 °F 30.16 in Calm   1.0 mph 92% 0.00 in
11:38 38.7 °F 36.3 °F 30.17 in Calm   1.0 mph 91% 0.00 in
11:43 38.7 °F 36.3 °F 30.17 in Calm   1.0 mph 91% 0.00 in
11:48 38.7 °F 36.5 °F 30.16 in Calm   1.0 mph 92% 0.00 in
11:53 38.7 °F 36.3 °F 30.16 in Calm   1.0 mph 91% 0.00 in
11:58 38.7 °F 36.3 °F 30.15 in Calm   1.0 mph 91% 0.00 in
12:03 38.5 °F 36.1 °F 30.15 in Calm     91% 0.00 in
12:08 38.7 °F 36.3 °F 30.15 in Calm     91% 0.00 in
12:13 38.8 °F 36.5 °F 30.15 in Calm     91% 0.00 in
12:18 39.0 °F 36.7 °F 30.15 in Calm     91% 0.00 in
12:29 39.2 °F 36.5 °F 30.14 in Calm     90% 0.00 in
12:34 39.4 °F 37.0 °F 30.14 in Calm     91% 0.00 in
12:39 39.6 °F 37.2 °F 30.14 in Calm   1.0 mph 91% 0.00 in
12:44 39.6 °F 36.9 °F 30.14 in Calm   1.0 mph 90% 0.00 in
12:49 39.6 °F 36.5 °F 30.14 in Calm     89% 0.00 in
12:54 39.7 °F 36.7 °F 30.14 in Calm     89% 0.00 in
12:59 39.9 °F 36.7 °F 30.13 in Calm     88% 0.00 in
13:04 40.1 °F 36.9 °F 30.13 in Calm     88% 0.00 in
13:09 40.3 °F 36.7 °F 30.13 in Calm     87% 0.00 in
13:14 40.5 °F 36.3 °F 30.13 in Calm   1.0 mph 85% 0.00 in
13:19 40.3 °F 35.6 °F 30.13 in Calm   1.0 mph 83% 0.00 in
13:24 39.9 °F 34.9 °F 30.13 in Calm     82% 0.00 in
13:29 39.9 °F 34.5 °F 30.12 in Calm     81% 0.00 in
13:34 39.7 °F 34.7 °F 30.13 in Calm     82% 0.00 in
13:39 39.6 °F 34.2 °F 30.12 in Calm     81% 0.00 in
13:44 39.6 °F 34.0 °F 30.12 in Calm     80% 0.00 in
13:49 39.6 °F 34.5 °F 30.12 in Calm   1.0 mph 82% 0.00 in
13:54 39.4 °F 34.3 °F 30.12 in Calm     82% 0.00 in
13:59 39.2 °F 33.3 °F 30.12 in Calm     79% 0.00 in
14:04 39.2 °F 33.6 °F 30.12 in Calm     80% 0.00 in
14:09 39.0 °F 33.1 °F 30.12 in Calm     79% 0.00 in
14:14 38.8 °F 32.5 °F 30.12 in Calm   1.0 mph 78% 0.00 in
14:19 38.8 °F 32.9 °F 30.12 in Calm     79% 0.00 in
14:24 38.7 °F 32.4 °F 30.12 in Calm   1.0 mph 78% 0.00 in
14:29 38.7 °F 32.7 °F 30.12 in Calm     79% 0.00 in
14:34 38.7 °F 33.1 °F 30.12 in Calm     80% 0.00 in
14:39 38.7 °F 33.1 °F 30.12 in Calm     80% 0.00 in
14:44 38.7 °F 33.1 °F 30.12 in Calm     80% 0.00 in
14:49 38.7 °F 33.6 °F 30.12 in Calm     82% 0.00 in
14:54 38.7 °F 32.7 °F 30.12 in Calm     79% 0.00 in
14:59 38.5 °F 32.9 °F 30.12 in Calm     80% 0.00 in
15:04 38.5 °F 33.1 °F 30.12 in ENE 0.9 mph 1.0 mph 81% 0.00 in
15:09 38.5 °F 32.9 °F 30.13 in Calm     80% 0.00 in
15:14 38.5 °F 32.9 °F 30.13 in Calm     80% 0.00 in
15:19 38.5 °F 32.2 °F 30.13 in Calm   1.0 mph 78% 0.00 in
15:24 38.5 °F 33.1 °F 30.12 in Calm     81% 0.00 in
15:29 38.5 °F 32.5 °F 30.11 in Calm   1.0 mph 79% 0.00 in
15:34 38.3 °F 31.6 °F 30.11 in Calm     77% 0.00 in
15:39 38.3 °F 31.5 °F 30.10 in Calm     76% 0.00 in
15:44 38.5 °F 31.8 °F 30.10 in Calm     77% 0.00 in
15:49 38.5 °F 32.5 °F 30.10 in Calm     79% 0.00 in
15:54 38.5 °F 33.1 °F 30.10 in Calm     81% 0.00 in
15:59 38.5 °F 32.2 °F 30.10 in Calm     78% 0.00 in
16:05 38.5 °F 32.9 °F 30.11 in Calm     80% 0.00 in
16:10 38.3 °F 33.3 °F 30.11 in Calm     82% 0.00 in
16:15 38.3 °F 32.7 °F 30.11 in Calm     80% 0.00 in
16:20 38.1 °F 32.7 °F 30.11 in Calm     81% 0.00 in
16:25 38.1 °F 33.1 °F 30.11 in Calm     82% 0.00 in
16:30 38.1 °F 33.4 °F 30.10 in Calm     83% 0.00 in
16:35 37.9 °F 32.7 °F 30.09 in Calm     81% 0.00 in
16:40 37.9 °F 32.9 °F 30.09 in Calm     82% 0.00 in
16:45 37.9 °F 32.7 °F 30.09 in Calm     81% 0.00 in
16:50 37.9 °F 32.7 °F 30.10 in Calm     81% 0.00 in
16:55 37.8 °F 32.7 °F 30.10 in Calm     82% 0.00 in
17:00 37.6 °F 32.9 °F 30.11 in Calm     83% 0.00 in
17:05 37.2 °F 32.2 °F 30.10 in Calm     82% 0.00 in
17:10 37.0 °F 32.4 °F 30.10 in Calm     83% 0.00 in
17:15 37.0 °F 32.4 °F 30.11 in Calm     83% 0.00 in
17:20 36.9 °F 32.2 °F 30.11 in Calm     83% 0.00 in
17:25 36.7 °F 32.0 °F 30.11 in Calm     83% 0.00 in
17:30 36.7 °F 32.4 °F 30.11 in Calm     84% 0.00 in
17:35 36.7 °F 32.0 °F 30.11 in Calm     83% 0.00 in
17:40 36.5 °F 31.8 °F 30.11 in Calm     83% 0.00 in
17:46 36.3 °F 31.3 °F 30.10 in Calm     82% 0.00 in
17:51 36.3 °F 31.6 °F 30.10 in Calm     83% 0.00 in
17:56 36.3 °F 32.0 °F 30.11 in Calm     84% 0.00 in
18:01 36.3 °F 32.2 °F 30.11 in Calm     85% 0.00 in
18:06 36.3 °F 32.0 °F 30.11 in Calm     84% 0.00 in
18:11 36.3 °F 31.6 °F 30.11 in Calm     83% 0.00 in
18:16 36.3 °F 31.6 °F 30.11 in Calm     83% 0.00 in
18:21 36.3 °F 31.6 °F 30.10 in Calm     83% 0.00 in
18:26 36.3 °F 31.1 °F 30.11 in Calm     81% 0.00 in
18:31 36.5 °F 31.3 °F 30.11 in Calm     81% 0.00 in
18:36 36.5 °F 30.9 °F 30.13 in Calm     80% 0.00 in
18:41 36.3 °F 31.3 °F 30.13 in Calm     82% 0.00 in
18:46 36.3 °F 31.3 °F 30.12 in Calm     82% 0.00 in
18:51 36.1 °F 30.9 °F 30.13 in Calm     81% 0.00 in
18:55 36.1 °F 31.1 °F 30.14 in Calm     82% 0.00 in
19:00 36.1 °F 31.1 °F 30.13 in Calm     82% 0.00 in
19:05 36.1 °F 31.1 °F 30.13 in Calm     82% 0.00 in
19:10 36.1 °F 31.1 °F 30.12 in Calm     82% 0.00 in
19:15 36.0 °F 30.9 °F 30.13 in Calm     82% 0.00 in
19:20 36.1 °F 31.1 °F 30.14 in Calm     82% 0.00 in
19:25 36.1 °F 31.1 °F 30.13 in Calm     82% 0.00 in
19:30 36.1 °F 30.9 °F 30.14 in Calm     81% 0.00 in
19:35 36.3 °F 31.1 °F 30.14 in Calm     81% 0.00 in
19:40 36.3 °F 31.1 °F 30.14 in Calm     81% 0.00 in
19:45 36.3 °F 31.3 °F 30.14 in Calm     82% 0.00 in
19:50 36.1 °F 31.5 °F 30.14 in Calm     83% 0.00 in
19:55 36.1 °F 30.9 °F 30.15 in Calm     81% 0.00 in
20:00 36.1 °F 30.9 °F 30.15 in Calm     81% 0.00 in
20:05 36.3 °F 31.1 °F 30.16 in Calm     81% 0.00 in
20:10 36.3 °F 31.3 °F 30.16 in Calm     82% 0.00 in
20:15 36.3 °F 32.0 °F 30.15 in Calm     84% 0.00 in
20:20 36.1 °F 32.0 °F 30.16 in Calm     85% 0.00 in
20:21 36.1 °F 32.0 °F 30.16 in Calm     85% 0.00 in
20:26 36.1 °F 31.8 °F 30.16 in Calm     84% 0.00 in
20:31 36.1 °F 32.4 °F 30.16 in Calm     86% 0.00 in
20:36 36.0 °F 32.5 °F 30.16 in SW 0.9 mph 1.0 mph 87% 0.00 in
20:41 36.0 °F 32.2 °F 30.17 in Calm   1.0 mph 86% 0.00 in
20:42 36.0 °F 32.2 °F 30.17 in Calm     86% 0.00 in
20:47 36.1 °F 32.7 °F 30.17 in Calm     87% 0.00 in
20:52 36.0 °F 32.7 °F 30.17 in Calm     88% 0.00 in
20:57 36.0 °F 32.7 °F 30.18 in Calm     88% 0.00 in
21:02 36.0 °F 32.7 °F 30.18 in Calm     88% 0.00 in
21:07 36.0 °F 33.1 °F 30.18 in Calm     89% 0.00 in
21:12 35.8 °F 32.5 °F 30.18 in Calm     88% 0.00 in
21:18 35.8 °F 32.5 °F 30.19 in Calm     88% 0.00 in
21:23 35.8 °F 32.9 °F 30.19 in Calm     89% 0.00 in
21:28 35.8 °F 33.1 °F 30.18 in Calm     90% 0.00 in
21:33 35.8 °F 33.1 °F 30.18 in Calm     90% 0.00 in
21:38 35.8 °F 33.1 °F 30.18 in Calm     90% 0.00 in
21:43 35.8 °F 32.9 °F 30.18 in Calm     89% 0.00 in
21:48 35.8 °F 33.4 °F 30.17 in Calm     91% 0.00 in
21:53 35.8 °F 33.4 °F 30.17 in Calm     91% 0.00 in
21:58 35.8 °F 33.4 °F 30.17 in Calm     91% 0.00 in
22:03 35.8 °F 33.4 °F 30.17 in Calm     91% 0.00 in
22:08 35.6 °F 33.4 °F 30.16 in Calm     92% 0.00 in
22:15 35.4 °F 33.3 °F 30.16 in Calm     92% 0.00 in
22:20 35.4 °F 33.3 °F 30.16 in Calm     92% 0.00 in
22:24 35.2 °F 33.1 °F 30.30 in Calm     92% 0.00 in
22:29 35.2 °F 33.1 °F 30.17 in Calm     92% 0.00 in
22:34 35.1 °F 32.9 °F 30.17 in Calm     92% 0.00 in
22:39 35.1 °F 33.3 °F 30.17 in Calm     93% 0.00 in
22:44 35.1 °F 33.3 °F 30.17 in Calm     93% 0.00 in
22:49 35.1 °F 33.3 °F 30.16 in Calm     93% 0.00 in
22:54 35.1 °F 32.9 °F 30.16 in Calm     92% 0.00 in
22:59 35.1 °F 32.9 °F 30.17 in Calm     92% 0.00 in
23:04 35.1 °F 32.9 °F 30.17 in Calm     92% 0.00 in
23:09 35.1 °F 33.3 °F 30.17 in Calm     93% 0.00 in
23:14 35.1 °F 33.3 °F 30.18 in Calm     93% 0.00 in
23:19 34.9 °F 33.3 °F 30.18 in Calm     94% 0.00 in
23:24 34.9 °F 33.3 °F 30.18 in Calm     94% 0.00 in
23:29 34.9 °F 33.3 °F 30.18 in Calm     94% 0.00 in
23:34 34.9 °F 33.3 °F 30.17 in Calm     94% 0.00 in
23:39 34.9 °F 33.3 °F 30.17 in Calm     94% 0.00 in
23:44 34.9 °F 33.1 °F 30.17 in Calm     93% 0.00 in
23:49 34.9 °F 33.1 °F 30.17 in Calm     93% 0.00 in
23:54 34.9 °F 32.7 °F 30.17 in Calm     92% 0.00 in
23:59 35.1 °F 32.9 °F 30.17 in Calm     92% 0.00 in
WheeWeather.com
Compliments of Weather Underground - 3.75 mb